This is the latest recevied weather packets stored in our database for station/object YN1JLX-13. If no packets are shown the sender has not sent any weather packets the latest 10 day(s).
| Time | Temp. | Humidity | Pressure | Rain* | Wind** | Luminosity | Snow |
|---|---|---|---|---|---|---|---|
| 1778375915 | 25.56° C | 40% | 1008 hPa | 0 mm | - | - | - |
| 1778375315 | 26.67° C | 40% | 1008 hPa | 0 mm | - | - | - |
| 1778374715 | 26.67° C | 40% | 1008 hPa | 0 mm | - | - | - |
| 1778374114 | 27.78° C | 40% | 1008 hPa | 0 mm | - | - | - |
| 1778373514 | 26.11° C | 37% | 1008 hPa | 0 mm | - | - | - |
| 1778372913 | 27.22° C | 37% | 1007 hPa | 0 mm | - | - | - |
| 1778372313 | 27.78° C | 37% | 1007 hPa | 0 mm | - | - | - |
| 1778371713 | 26.11° C | 33% | 1007 hPa | 0 mm | - | - | - |
| 1778371113 | 27.22° C | 33% | 1007 hPa | 0 mm | - | - | - |
| 1778369912 | 28.33° C | 33% | 1006 hPa | 0 mm | - | - | - |
| 1778369312 | 28.33° C | 33% | 1006 hPa | 0 mm | - | - | - |
| 1778366310 | 30° C | 33% | 1006 hPa | 0 mm | - | - | - |
| 1778365710 | 29.44° C | 31% | 1006 hPa | 0 mm | - | - | - |
| 1778365110 | 30.56° C | 31% | 1006 hPa | 0 mm | - | - | - |
| 1778363909 | 30° C | 31% | 1006 hPa | 0 mm | - | - | - |
| 1778362708 | 31.11° C | 31% | 1006 hPa | 0 mm | - | - | - |
| 1778362108 | 28.89° C | 34% | 1006 hPa | 0 mm | - | - | - |
| 1778361508 | 28.89° C | 34% | 1006 hPa | 0 mm | - | - | - |
| 1778360908 | 29.44° C | 34% | 1006 hPa | 0 mm | - | - | - |
| 1778360307 | 28.89° C | 34% | 1006 hPa | 0 mm | - | - | - |
| 1778359106 | 30.56° C | 33% | 1006 hPa | 0 mm | - | - | - |
| 1778358506 | 28.89° C | 37% | 1007 hPa | 0 mm | - | - | - |
| 1778356105 | 29.44° C | 37% | 1007 hPa | 0 mm | - | - | - |
| 1778342297 | 26.11° C | 55% | 1011 hPa | 0 mm | - | - | - |
| 1778338695 | 23.89° C | 58% | 1011 hPa | 0 mm | - | - | - |
* Rain latest hour (hover to see other rain measurements)
** Current wind speed in m/s (hover to see current wind gust speed)